Terminal Aerodrome Forecast
Issued by NWS Wilmington, OH

Current Version | Previous Version | Graphics & Text | Print | Product List | Glossary On
Versions: 1 2 3 4 5 6 7 8 9 10 11 12 13 14 15 16 17 18 19 20
000
FTUS41 KILN 201400 AAA
TAFCMH
TAF AMD
KCMH 201459Z 2015/2112 20013G21KT P6SM SCT050 BKN250
     FM201600 21014G22KT P6SM BKN050
     FM202300 21012KT P6SM SCT050
     FM210700 22012KT P6SM VCSH BKN040
     FM211000 23010KT P6SM VCSH BKN025=

USA.gov is the U.S. government's official web portal to all federal, state and local government web resources and services.